Time;durP1;ratioP1;P1;durP2;ratioP2;P2;SDS_P1;SDS_P2;PMS_P1;PMS_P2;Temp;Humidity;BMP_temperature;BMP_pressure;BME280_temperature;BME280_humidity;BME280_pressure;Samples;Min_cycle;Max_cycle;Signal;HPM_P1;HPM_P2
2024/02/19 00:01:30;;;;;;;;;;;;;;;9.64;55.88;100731.63;4957768;28;19926;-87
2024/02/19 00:03:55;;;;;;;;;;;;;;;9.63;55.61;100735.22;4957608;28;19983;-87
2024/02/19 00:06:23;;;;;;;;;;;;;;;9.61;55.24;100729.25;4974942;28;19918;-87
2024/02/19 00:08:50;;;;;;;;;;;;;;;9.54;56.37;100736.91;4974962;28;19921;-87
2024/02/19 00:11:16;;;;;;;;;;;;;;;9.50;56.04;100732.91;4974773;28;19914;-87
2024/02/19 00:13:41;;;;;;;;;;;;;;;9.43;57.44;100729.16;4978358;28;20355;-86
2024/02/19 00:16:06;;;;;;;;;;;;;;;9.41;57.38;100725.84;4982853;28;20008;-87
2024/02/19 00:18:32;;;;;;;;;;;;;;;9.41;56.27;100731.13;4957348;28;20469;-87
2024/02/19 00:20:57;;;;;;;;;;;;;;;9.40;56.92;100734.72;4974722;28;19919;-87
2024/02/19 00:23:23;;;;;;;;;;;;;;;9.34;57.95;100725.56;4957173;28;20292;-87
2024/02/19 00:25:48;;;;;;;;;;;;;;;9.32;58.04;100722.25;4957027;28;19910;-87
2024/02/19 00:28:13;;;;;;;;;;;;;;;9.34;57.13;100724.75;4974301;28;19914;-87
2024/02/19 00:30:39;;;;;;;;;;;;;;;9.33;57.46;100733.63;4956830;28;19910;-87
2024/02/19 00:33:04;;;;;;;;;;;;;;;9.32;57.92;100727.53;4956913;28;19919;-87
2024/02/19 00:35:31;;;;;;;;;;;;;;;9.31;58.21;100731.13;4956834;28;19921;-87
2024/02/19 00:37:57;;;;;;;;;;;;;;;9.28;58.19;100726.13;4974255;28;19917;-87
2024/02/19 00:40:22;;;;;;;;;;;;;;;9.29;56.75;100727.81;4973650;28;19922;-87
2024/02/19 00:42:47;;;;;;;;;;;;;;;9.30;56.85;100732.09;4956694;28;20399;-87
2024/02/19 00:45:13;;;;;;;;;;;;;;;9.27;57.85;100721.00;4974128;28;19949;-87
2024/02/19 00:47:38;;;;;;;;;;;;;;;9.21;58.25;100730.31;4974192;28;19914;-87
2024/02/19 00:50:04;;;;;;;;;;;;;;;9.22;58.40;100729.34;4974448;28;19973;-87
2024/02/19 00:52:29;;;;;;;;;;;;;;;9.24;58.34;100735.31;4956721;28;20307;-87
2024/02/19 00:54:57;;;;;;;;;;;;;;;9.28;58.11;100722.66;4956788;28;20008;-87
2024/02/19 00:57:22;;;;;;;;;;;;;;;9.27;58.83;100723.66;4973975;28;19921;-87
2024/02/19 00:59:48;;;;;;;;;;;;;;;9.24;57.84;100722.13;4974041;28;19918;-87
2024/02/19 01:02:13;;;;;;;;;;;;;;;9.23;57.81;100720.47;4973896;28;19958;-87
2024/02/19 01:04:38;;;;;;;;;;;;;;;9.26;56.63;100727.25;4973780;28;19968;-87
2024/02/19 01:07:03;;;;;;;;;;;;;;;9.24;57.17;100722.13;4973384;28;19914;-87
2024/02/19 01:09:29;;;;;;;;;;;;;;;9.22;57.90;100726.69;4956580;28;19926;-87
2024/02/19 01:11:54;;;;;;;;;;;;;;;9.23;57.33;100721.28;4973762;28;20000;-87
2024/02/19 01:14:20;;;;;;;;;;;;;;;9.19;58.00;100719.91;4973720;28;19914;-87
2024/02/19 01:16:46;;;;;;;;;;;;;;;9.18;58.22;100715.63;4973677;28;20399;-87
2024/02/19 01:19:12;;;;;;;;;;;;;;;9.19;57.73;100711.19;4956207;28;20384;-87
2024/02/19 01:21:38;;;;;;;;;;;;;;;9.18;57.28;100714.78;4956531;28;19922;-87
2024/02/19 01:24:03;;;;;;;;;;;;;;;9.16;57.41;100703.56;4973787;28;19918;-87
2024/02/19 01:26:29;;;;;;;;;;;;;;;9.15;58.41;100705.34;4956567;28;20410;-87
2024/02/19 01:28:55;;;;;;;;;;;;;;;9.13;59.00;100706.47;4973763;28;19973;-87
2024/02/19 01:31:21;;;;;;;;;;;;;;;9.12;58.61;100712.72;4973741;28;20388;-87
2024/02/19 01:33:46;;;;;;;;;;;;;;;9.13;57.36;100707.28;4973259;28;19928;-87
2024/02/19 01:36:12;;;;;;;;;;;;;;;9.07;59.47;100704.38;4956015;28;20363;-87
2024/02/19 01:38:37;;;;;;;;;;;;;;;9.09;58.46;100705.91;4973310;28;20455;-87
2024/02/19 01:41:02;;;;;;;;;;;;;;;9.08;58.26;100695.50;4955681;28;19925;-87
2024/02/19 01:43:28;;;;;;;;;;;;;;;9.08;58.25;100700.78;4973256;28;19921;-87
2024/02/19 01:45:54;;;;;;;;;;;;;;;9.07;58.65;100702.59;4973208;28;20327;-87
2024/02/19 01:48:19;;;;;;;;;;;;;;;9.06;59.48;100700.09;4973241;28;19968;-87
2024/02/19 01:50:46;;;;;;;;;;;;;;;9.07;59.23;100701.75;4957871;28;21033;-87
2024/02/19 01:53:12;;;;;;;;;;;;;;;9.08;59.33;100708.69;4981495;28;20012;-87
2024/02/19 01:55:39;;;;;;;;;;;;;;;9.06;58.71;100711.47;4975431;28;20004;-87
2024/02/19 01:58:07;;;;;;;;;;;;;;;9.08;58.88;100712.16;4956079;28;20471;-87
2024/02/19 02:00:33;;;;;;;;;;;;;;;9.10;59.38;100712.84;4955553;28;19918;-87
2024/02/19 02:02:59;;;;;;;;;;;;;;;9.09;58.81;100705.91;4955490;28;19962;-87
2024/02/19 02:05:24;;;;;;;;;;;;;;;9.05;59.69;100701.91;4955572;28;19924;-87
2024/02/19 02:07:51;;;;;;;;;;;;;;;9.06;58.72;100700.94;4972740;28;19914;-87
2024/02/19 02:10:18;;;;;;;;;;;;;;;9.06;59.57;100698.28;4955784;28;20001;-87
2024/02/19 02:12:43;;;;;;;;;;;;;;;9.09;59.05;100694.53;4955752;28;20312;-87
2024/02/19 02:15:09;;;;;;;;;;;;;;;9.08;58.39;100690.25;4955469;28;19914;-87
2024/02/19 02:17:34;;;;;;;;;;;;;;;9.05;58.36;100686.09;4972885;28;20367;-87
2024/02/19 02:19:59;;;;;;;;;;;;;;;9.04;58.98;100687.06;4972802;28;19914;-87
2024/02/19 02:22:24;;;;;;;;;;;;;;;9.05;58.29;100682.63;4972833;28;20434;-87
2024/02/19 02:24:50;;;;;;;;;;;;;;;9.01;58.97;100682.06;4972851;28;19957;-87
2024/02/19 02:27:16;;;;;;;;;;;;;;;8.99;60.14;100686.66;4955508;28;20314;-87
2024/02/19 02:29:41;;;;;;;;;;;;;;;8.99;60.14;100685.81;4955451;28;19914;-87
2024/02/19 02:32:07;;;;;;;;;;;;;;;8.98;60.57;100689.44;4972755;28;19970;-87
2024/02/19 02:34:32;;;;;;;;;;;;;;;8.99;59.96;100686.66;4972694;28;19918;-87
2024/02/19 02:36:57;;;;;;;;;;;;;;;9.02;59.62;100696.06;4955303;28;19915;-87
2024/02/19 02:39:23;;;;;;;;;;;;;;;9.02;59.78;100696.91;4972655;28;19918;-87
2024/02/19 02:41:48;;;;;;;;;;;;;;;9.05;59.56;100699.25;4955259;28;19926;-87
2024/02/19 02:44:14;;;;;;;;;;;;;;;9.09;59.28;100697.19;4972792;28;19918;-87
2024/02/19 02:46:39;;;;;;;;;;;;;;;9.10;60.21;100696.22;4955164;28;19914;-87
2024/02/19 02:49:05;;;;;;;;;;;;;;;9.10;59.34;100693.56;4972315;28;20383;-87
2024/02/19 02:51:30;;;;;;;;;;;;;;;9.11;59.62;100696.06;4972456;28;20380;-87
2024/02/19 02:53:55;;;;;;;;;;;;;;;9.09;59.83;100692.75;4972883;28;19914;-87
2024/02/19 02:56:21;;;;;;;;;;;;;;;9.11;59.45;100677.63;4955061;28;19961;-87
2024/02/19 02:58:47;;;;;;;;;;;;;;;9.13;59.90;100682.75;4955192;28;20300;-87
2024/02/19 03:01:25;;;;;;;;;;;;;;;9.12;59.76;100681.91;4972374;28;19922;-87
2024/02/19 03:03:51;;;;;;;;;;;;;;;9.09;59.71;100690.09;4975636;28;19929;-87
2024/02/19 03:06:17;;;;;;;;;;;;;;;9.11;59.63;100690.81;4975880;28;19914;-87
2024/02/19 03:08:42;;;;;;;;;;;;;;;9.09;60.21;100690.09;4975825;28;19921;-87
2024/02/19 03:11:07;;;;;;;;;;;;;;;9.08;60.01;100690.25;4958519;28;19940;-87
2024/02/19 03:13:33;;;;;;;;;;;;;;;9.09;59.29;100694.53;4975815;28;20405;-87
2024/02/19 03:15:58;;;;;;;;;;;;;;;9.09;59.78;100682.19;4958434;28;19921;-87
2024/02/19 03:18:23;;;;;;;;;;;;;;;9.06;60.30;100679.84;4975815;28;20423;-87
2024/02/19 03:20:49;;;;;;;;;;;;;;;9.06;60.07;100674.59;4975616;28;19918;-87
2024/02/19 03:23:15;;;;;;;;;;;;;;;9.06;60.13;100679.84;4958286;28;20379;-87
2024/02/19 03:25:40;;;;;;;;;;;;;;;9.04;60.82;100683.59;4975546;28;19921;-87
2024/02/19 03:28:05;;;;;;;;;;;;;;;9.00;60.82;100679.59;4975598;28;19910;-87
2024/02/19 03:30:31;;;;;;;;;;;;;;;9.01;60.36;100683.88;4958371;28;19914;-87
2024/02/19 03:32:56;;;;;;;;;;;;;;;8.99;60.16;100686.66;4958284;28;19914;-87
2024/02/19 03:35:21;;;;;;;;;;;;;;;8.97;59.91;100679.84;4958366;28;19910;-87
2024/02/19 03:37:47;;;;;;;;;;;;;;;8.98;60.79;100687.63;4975617;28;19953;-88
2024/02/19 03:40:12;;;;;;;;;;;;;;;8.98;60.64;100687.63;4958039;28;19918;-87
2024/02/19 03:42:37;;;;;;;;;;;;;;;9.01;60.50;100684.72;4975143;28;19937;-87
2024/02/19 03:45:04;;;;;;;;;;;;;;;9.04;59.92;100678.31;4975190;28;19925;-87
2024/02/19 03:47:29;;;;;;;;;;;;;;;9.05;60.09;100685.25;4975492;28;19976;-88
2024/02/19 03:49:55;;;;;;;;;;;;;;;9.06;59.84;100686.91;4958002;28;19918;-87
2024/02/19 03:52:20;;;;;;;;;;;;;;;9.07;60.16;100691.22;4975132;28;20316;-87
2024/02/19 03:54:45;;;;;;;;;;;;;;;9.06;60.17;100689.56;4957522;28;19911;-87
2024/02/19 03:57:10;;;;;;;;;;;;;;;9.07;60.23;100688.59;4975080;28;20318;-86
2024/02/19 03:59:36;;;;;;;;;;;;;;;9.09;59.88;100686.63;4957856;28;19918;-87
2024/02/19 04:02:01;;;;;;;;;;;;;;;9.10;59.52;100680.41;4954232;28;20029;-87
2024/02/19 04:04:26;;;;;;;;;;;;;;;9.12;60.11;100683.72;4955565;28;19925;-87
2024/02/19 04:06:51;;;;;;;;;;;;;;;9.12;60.09;100686.38;4954190;28;19919;-87
2024/02/19 04:09:17;;;;;;;;;;;;;;;9.09;60.53;100689.28;4955722;28;19950;-87
2024/02/19 04:11:42;;;;;;;;;;;;;;;9.06;60.79;100687.75;4955480;28;19930;-87
2024/02/19 04:14:07;;;;;;;;;;;;;;;9.04;60.32;100687.06;4953406;28;19915;-87
2024/02/19 04:16:33;;;;;;;;;;;;;;;9.05;60.82;100686.09;4955435;28;19907;-87
2024/02/19 04:18:58;;;;;;;;;;;;;;;9.02;59.95;100681.09;4953942;28;19922;-87
2024/02/19 04:21:23;;;;;;;;;;;;;;;9.03;60.32;100687.19;4955120;28;19970;-87
2024/02/19 04:23:48;;;;;;;;;;;;;;;9.05;60.55;100687.91;4954000;28;19921;-87
2024/02/19 04:26:14;;;;;;;;;;;;;;;9.04;60.59;100691.50;4955223;28;19997;-87
2024/02/19 04:28:39;;;;;;;;;;;;;;;9.03;60.52;100689.84;4955147;28;20304;-87
2024/02/19 04:31:04;;;;;;;;;;;;;;;8.99;60.38;100685.81;4955124;28;20061;-87
2024/02/19 04:33:30;;;;;;;;;;;;;;;8.97;60.95;100685.97;4953953;28;20391;-87
2024/02/19 04:35:55;;;;;;;;;;;;;;;8.99;60.64;100686.66;4955447;28;19930;-87
2024/02/19 04:38:21;;;;;;;;;;;;;;;9.02;60.40;100673.19;4955377;28;19915;-87
2024/02/19 04:40:46;;;;;;;;;;;;;;;9.03;61.15;100666.97;4954201;28;19958;-87
2024/02/19 04:43:11;;;;;;;;;;;;;;;9.01;60.55;100662.81;4954951;28;20289;-87
2024/02/19 04:45:36;;;;;;;;;;;;;;;8.94;61.53;100665.16;4955333;28;19919;-87
2024/02/19 04:48:02;;;;;;;;;;;;;;;8.87;61.30;100664.88;4955109;28;19926;-87
2024/02/19 04:50:27;;;;;;;;;;;;;;;8.84;60.75;100667.78;4954868;28;20011;-87
2024/02/19 04:52:52;;;;;;;;;;;;;;;8.86;61.29;100660.56;4954791;28;20399;-87
2024/02/19 04:55:18;;;;;;;;;;;;;;;8.89;60.51;100675.25;4953435;28;19937;-87
2024/02/19 04:57:43;;;;;;;;;;;;;;;8.95;60.26;100671.25;4955014;28;19915;-87
2024/02/19 05:00:09;;;;;;;;;;;;;;;8.98;60.51;100665.72;4953363;28;20380;-87
2024/02/19 05:02:34;;;;;;;;;;;;;;;8.96;60.96;100668.50;4969939;28;19922;-87
2024/02/19 05:04:59;;;;;;;;;;;;;;;8.93;61.43;100670.56;4956398;28;19974;-87
2024/02/19 05:07:24;;;;;;;;;;;;;;;8.90;61.09;100666.38;4973842;28;19914;-87
2024/02/19 05:09:50;;;;;;;;;;;;;;;8.84;61.34;100665.16;4973715;28;19972;-87
2024/02/19 05:12:15;;;;;;;;;;;;;;;8.86;60.97;100665.00;4956343;28;19914;-87
2024/02/19 05:14:40;;;;;;;;;;;;;;;8.87;61.42;100672.75;4956284;28;19918;-88
2024/02/19 05:17:07;;;;;;;;;;;;;;;8.87;61.23;100669.31;4956310;28;20392;-87
2024/02/19 05:19:33;;;;;;;;;;;;;;;8.89;61.11;100676.09;4956165;28;19918;-87
2024/02/19 05:21:58;;;;;;;;;;;;;;;8.93;61.55;100673.22;4973656;28;20281;-87
2024/02/19 05:24:23;;;;;;;;;;;;;;;8.92;61.92;100669.75;4956059;28;20000;-87
2024/02/19 05:26:49;;;;;;;;;;;;;;;8.92;61.21;100677.66;4973385;28;19969;-87
2024/02/19 05:29:14;;;;;;;;;;;;;;;8.89;60.65;100681.34;4956150;28;19936;-88
2024/02/19 05:31:40;;;;;;;;;;;;;;;8.94;60.45;100683.59;4973490;28;20405;-87
2024/02/19 05:34:06;;;;;;;;;;;;;;;8.97;60.77;100688.59;4973169;28;19918;-87
2024/02/19 05:36:31;;;;;;;;;;;;;;;8.96;60.93;100686.94;4955817;28;19969;-87
2024/02/19 05:38:57;;;;;;;;;;;;;;;8.98;60.67;100694.69;4956114;28;19966;-87
2024/02/19 05:41:23;;;;;;;;;;;;;;;9.00;60.31;100690.13;4972979;28;19922;-87
2024/02/19 05:43:48;;;;;;;;;;;;;;;9.03;60.54;100703.00;4973240;28;19914;-87
2024/02/19 05:46:14;;;;;;;;;;;;;;;9.02;60.53;100696.06;4955636;28;19914;-88
2024/02/19 05:48:40;;;;;;;;;;;;;;;9.01;60.31;100697.88;4956146;28;19950;-87
2024/02/19 05:51:06;;;;;;;;;;;;;;;9.03;60.76;100703.00;4956019;28;20012;-87
2024/02/19 05:53:32;;;;;;;;;;;;;;;9.03;60.58;100705.66;4955684;28;19918;-87
2024/02/19 05:55:57;;;;;;;;;;;;;;;9.01;61.28;100700.50;4955747;28;19914;-87
2024/02/19 05:58:22;;;;;;;;;;;;;;;9.01;60.39;100703.16;4973570;28;19918;-87
2024/02/19 06:00:48;;;;;;;;;;;;;;;9.02;60.56;100707.44;4973137;28;19919;-87
2024/02/19 06:03:13;;;;;;;;;;;;;;;9.06;60.25;100703.56;4955444;28;19918;-87
2024/02/19 06:05:38;;;;;;;;;;;;;;;9.07;60.01;100705.22;4955487;28;19918;-87
2024/02/19 06:08:04;;;;;;;;;;;;;;;9.08;60.46;100706.06;4972771;28;19944;-87
2024/02/19 06:10:29;;;;;;;;;;;;;;;9.10;60.46;100704.13;4973091;28;20016;-88
2024/02/19 06:12:54;;;;;;;;;;;;;;;9.12;60.34;100702.16;4955452;28;19942;-87
2024/02/19 06:15:19;;;;;;;;;;;;;;;9.14;60.21;100705.50;4972909;28;20397;-87
2024/02/19 06:17:45;;;;;;;;;;;;;;;9.13;60.59;100709.09;4955646;28;19914;-87
2024/02/19 06:20:11;;;;;;;;;;;;;;;9.14;59.96;100708.97;4955872;28;20333;-87
2024/02/19 06:22:36;;;;;;;;;;;;;;;9.16;60.23;100711.44;4955431;28;19985;-87
2024/02/19 06:25:01;;;;;;;;;;;;;;;9.15;60.12;100705.34;4955606;28;19944;-87
2024/02/19 06:27:26;;;;;;;;;;;;;;;9.17;60.07;100713.94;4972982;28;19910;-87
2024/02/19 06:29:51;;;;;;;;;;;;;;;9.20;60.08;100710.19;4955585;28;19976;-88
2024/02/19 06:32:17;;;;;;;;;;;;;;;9.23;60.33;100708.13;4972674;28;19914;-87
2024/02/19 06:34:42;;;;;;;;;;;;;;;9.27;59.89;100703.41;4972433;28;19938;-87
2024/02/19 06:37:07;;;;;;;;;;;;;;;9.29;59.57;100708.53;4973685;28;19921;-88
2024/02/19 06:39:35;;;;;;;;;;;;;;;9.30;60.48;100718.09;4959138;28;20487;-88
2024/02/19 06:42:00;;;;;;;;;;;;;;;9.29;59.93;100721.69;4958847;28;20327;-87
2024/02/19 06:44:25;;;;;;;;;;;;;;;9.28;59.91;100718.22;4959005;28;19918;-88
2024/02/19 06:46:50;;;;;;;;;;;;;;;9.31;59.93;100715.31;4980558;28;19924;-88
2024/02/19 06:49:16;;;;;;;;;;;;;;;9.33;59.72;100712.53;4977841;28;19914;-88
2024/02/19 06:51:41;;;;;;;;;;;;;;;9.31;60.28;100706.56;4979627;28;19914;-87
2024/02/19 06:54:07;;;;;;;;;;;;;;;9.30;59.95;100718.09;4976813;28;19985;-88
2024/02/19 06:56:32;;;;;;;;;;;;;;;9.29;60.00;100717.25;4977044;28;20017;-87
2024/02/19 06:58:57;;;;;;;;;;;;;;;9.29;59.46;100700.63;4976510;28;19953;-87
2024/02/19 07:01:22;;;;;;;;;;;;;;;9.30;59.43;100712.81;4958802;28;20399;-87
2024/02/19 07:03:48;;;;;;;;;;;;;;;9.28;60.12;100710.31;4958834;28;19914;-87
2024/02/19 07:06:13;;;;;;;;;;;;;;;9.28;59.68;100709.50;4976312;28;19918;-88
2024/02/19 07:08:38;;;;;;;;;;;;;;;9.24;60.22;100711.59;4975852;28;20347;-88
2024/02/19 07:11:04;;;;;;;;;;;;;;;9.23;59.98;100709.91;4975985;28;20315;-87
2024/02/19 07:13:29;;;;;;;;;;;;;;;9.22;60.02;100708.25;4975912;28;20383;-88
2024/02/19 07:15:54;;;;;;;;;;;;;;;9.23;59.73;100717.81;4976162;28;19920;-88
2024/02/19 07:18:19;;;;;;;;;;;;;;;9.26;59.83;100714.91;4975947;28;19957;-87
2024/02/19 07:20:45;;;;;;;;;;;;;;;9.29;59.78;100717.25;4975764;28;20415;-88
2024/02/19 07:23:10;;;;;;;;;;;;;;;9.30;59.93;100702.28;4976102;28;19921;-87
2024/02/19 07:25:35;;;;;;;;;;;;;;;9.30;60.07;100712.81;4958422;28;19920;-88
2024/02/19 07:28:01;;;;;;;;;;;;;;;9.27;60.08;100706.03;4958522;28;19973;-88
2024/02/19 07:30:26;;;;;;;;;;;;;;;9.25;59.78;100713.25;4958296;28;19914;-88
2024/02/19 07:32:51;;;;;;;;;;;;;;;9.25;60.16;100702.72;4958072;28;20005;-88
2024/02/19 07:35:16;;;;;;;;;;;;;;;9.27;60.35;100705.19;4975434;28;19968;-88
2024/02/19 07:37:42;;;;;;;;;;;;;;;9.26;60.27;100704.38;4971621;28;20418;-87
2024/02/19 07:40:07;;;;;;;;;;;;;;;9.24;60.01;100711.59;4970994;28;19922;-87
2024/02/19 07:42:33;;;;;;;;;;;;;;;9.27;60.02;100706.03;4963937;28;19925;-87
2024/02/19 07:44:58;;;;;;;;;;;;;;;9.32;59.62;100702.97;4975365;28;20450;-87
2024/02/19 07:47:23;;;;;;;;;;;;;;;9.36;59.95;100691.16;4964572;28;19921;-87
2024/02/19 07:49:48;;;;;;;;;;;;;;;9.40;59.91;100701.28;4958970;28;19928;-88
2024/02/19 07:52:14;;;;;;;;;;;;;;;9.41;59.70;100696.84;4951737;28;19915;-87
2024/02/19 07:54:39;;;;;;;;;;;;;;;9.42;59.95;100690.59;4975368;28;19989;-88
2024/02/19 07:57:04;;;;;;;;;;;;;;;9.44;59.83;100683.38;4938764;28;19921;-88
2024/02/19 07:59:30;;;;;;;;;;;;;;;9.52;60.06;100686.97;4955801;28;20407;-87
2024/02/19 08:01:55;;;;;;;;;;;;;;;9.58;60.02;100685.56;4955431;28;19923;-87
2024/02/19 08:04:24;;;;;;;;;;;;;;;9.65;59.68;100688.44;4955600;28;19945;-87
2024/02/19 08:06:50;;;;;;;;;;;;;;;9.71;59.94;100683.47;4946900;28;19918;-87
2024/02/19 08:09:15;;;;;;;;;;;;;;;9.76;58.65;100686.50;4965840;28;19918;-88
2024/02/19 08:11:40;;;;;;;;;;;;;;;9.81;58.98;100675.50;4949586;28;20005;-87
2024/02/19 08:14:05;;;;;;;;;;;;;;;9.81;58.75;100678.16;4948580;28;19918;-87
2024/02/19 08:16:31;;;;;;;;;;;;;;;9.85;59.11;100684.78;4974858;28;19942;-87
2024/02/19 08:18:56;;;;;;;;;;;;;;;9.88;58.42;100684.50;4972726;28;20332;-87
2024/02/19 08:21:22;;;;;;;;;;;;;;;9.94;59.01;100678.66;4957086;28;19922;-87
2024/02/19 08:23:47;;;;;;;;;;;;;;;9.95;58.63;100680.31;4957311;28;20001;-87
2024/02/19 08:26:13;;;;;;;;;;;;;;;9.93;58.53;100681.44;4954768;28;20432;-87
2024/02/19 08:28:38;;;;;;;;;;;;;;;9.94;59.02;100681.28;4937824;29;19982;-86
2024/02/19 08:31:03;;;;;;;;;;;;;;;9.96;58.85;100681.13;4970900;28;19918;-86
2024/02/19 08:33:28;;;;;;;;;;;;;;;9.99;58.97;100689.59;4958955;28;19921;-87
2024/02/19 08:35:54;;;;;;;;;;;;;;;10.02;58.89;100683.19;4963113;28;20012;-86
2024/02/19 08:38:19;;;;;;;;;;;;;;;10.03;58.65;100677.75;4959318;28;19924;-87
2024/02/19 08:40:45;;;;;;;;;;;;;;;10.05;59.08;100681.09;4958857;28;21018;-87
2024/02/19 08:43:11;;;;;;;;;;;;;;;10.07;58.81;100673.03;4957015;28;19918;-86
2024/02/19 08:45:42;;;;;;;;;;;;;;;10.11;59.29;100675.22;4974416;28;19921;-87
2024/02/19 08:48:08;;;;;;;;;;;;;;;10.14;59.01;100674.09;4956565;28;20387;-87
2024/02/19 08:50:34;;;;;;;;;;;;;;;10.15;58.36;100675.75;4965003;28;19950;-87
2024/02/19 08:53:00;;;;;;;;;;;;;;;10.14;58.37;100677.56;4961077;28;19926;-86
2024/02/19 08:55:25;;;;;;;;;;;;;;;10.16;58.72;100680.06;4951474;28;19918;-87
2024/02/19 08:57:51;;;;;;;;;;;;;;;10.14;58.01;100677.56;4971460;28;20296;-87
2024/02/19 09:00:16;;;;;;;;;;;;;;;10.03;58.17;100671.66;4944921;28;19919;-86
2024/02/19 09:02:42;;;;;;;;;;;;;;;10.01;58.42;100669.16;4969022;28;20356;-87
2024/02/19 09:05:09;;;;;;;;;;;;;;;9.97;57.93;100675.72;4941776;28;19919;-87
2024/02/19 09:07:34;;;;;;;;;;;;;;;9.92;58.51;100671.84;4937034;28;19915;-87
2024/02/19 09:10:00;;;;;;;;;;;;;;;9.94;58.15;100672.53;4954236;28;19973;-86
2024/02/19 09:12:25;;;;;;;;;;;;;;;9.94;58.43;100676.00;4953711;28;20054;-86
2024/02/19 09:14:50;;;;;;;;;;;;;;;9.93;58.63;100678.78;4967814;28;19925;-85
2024/02/19 09:17:16;;;;;;;;;;;;;;;9.92;58.30;100677.97;4954645;28;20365;-86
2024/02/19 09:19:41;;;;;;;;;;;;;;;9.95;58.68;100679.47;4950408;28;19914;-86
2024/02/19 09:22:07;;;;;;;;;;;;;;;9.97;58.65;100673.06;4963727;28;19922;-86
2024/02/19 09:24:32;;;;;;;;;;;;;;;9.96;57.85;100674.06;4953791;28;20395;-86
2024/02/19 09:26:58;;;;;;;;;;;;;;;9.92;58.34;100674.50;4945696;28;20021;-87
2024/02/19 09:29:24;;;;;;;;;;;;;;;9.92;57.59;100677.13;4953449;28;19936;-87
2024/02/19 09:31:49;;;;;;;;;;;;;;;9.91;58.25;100673.66;4945707;28;19969;-86
2024/02/19 09:34:15;;;;;;;;;;;;;;;9.93;59.12;100670.88;4974042;28;19914;-87
2024/02/19 09:36:42;;;;;;;;;;;;;;;9.96;58.17;100663.50;4965886;28;20016;-86
2024/02/19 09:39:07;;;;;;;;;;;;;;;10.03;58.83;100672.50;4959691;28;19918;-86
2024/02/19 09:41:33;;;;;;;;;;;;;;;10.05;58.18;100662.63;4953360;28;19933;-86
2024/02/19 09:43:58;;;;;;;;;;;;;;;10.07;58.31;100658.03;4937557;28;19918;-86
2024/02/19 09:46:24;;;;;;;;;;;;;;;10.04;58.14;100658.31;4954182;28;19925;-86
2024/02/19 09:48:50;;;;;;;;;;;;;;;10.03;58.22;100661.94;4951265;28;19969;-87
2024/02/19 09:51:20;;;;;;;;;;;;;;;10.04;57.81;100663.59;4951209;28;20016;-87
2024/02/19 09:53:50;;;;;;;;;;;;;;;10.03;59.12;100664.56;4945296;28;19928;-87
2024/02/19 09:56:17;;;;;;;;;;;;;;;10.06;57.96;100652.91;4936475;28;19915;-86
2024/02/19 09:58:43;;;;;;;;;;;;;;;10.09;58.35;100649.97;4935921;28;20400;-86
2024/02/19 10:01:09;;;;;;;;;;;;;;;10.12;58.07;100654.94;4935582;29;19922;-86
2024/02/19 10:03:34;;;;;;;;;;;;;;;10.13;57.97;100654.78;4963671;28;19987;-86
2024/02/19 10:06:02;;;;;;;;;;;;;;;10.16;58.22;100651.03;4949997;28;19925;-86
2024/02/19 10:08:27;;;;;;;;;;;;;;;10.22;58.08;100653.09;4949936;28;19980;-85
2024/02/19 10:10:56;;;;;;;;;;;;;;;10.26;57.76;100651.84;4953491;28;19914;-87
2024/02/19 10:13:21;;;;;;;;;;;;;;;10.34;58.00;100646.63;4940212;28;20005;-87
2024/02/19 10:15:46;;;;;;;;;;;;;;;10.42;57.27;100638.81;4946526;28;20018;-87
2024/02/19 10:18:13;;;;;;;;;;;;;;;10.51;57.58;100639.72;4946686;28;19926;-86
2024/02/19 10:20:50;;;;;;;;;;;;;;;10.59;57.44;100634.53;4942165;28;19930;-87
2024/02/19 10:23:17;;;;;;;;;;;;;;;10.65;56.96;100633.09;4957209;28;19919;-86
2024/02/19 10:25:42;;;;;;;;;;;;;;;10.66;56.37;100632.94;4940466;29;19915;-87
2024/02/19 10:28:08;;;;;;;;;;;;;;;10.70;56.77;100622.91;4940266;29;19921;-86
2024/02/19 10:30:34;;;;;;;;;;;;;;;10.72;56.91;100620.94;4939817;28;19922;-87
2024/02/19 10:32:59;;;;;;;;;;;;;;;10.76;57.55;100609.91;4957586;28;19918;-86
2024/02/19 10:35:25;;;;;;;;;;;;;;;10.80;57.69;100613.91;4957589;28;19930;-87
2024/02/19 10:37:50;;;;;;;;;;;;;;;10.80;56.80;100611.25;4941413;28;19926;-86
2024/02/19 10:40:18;;;;;;;;;;;;;;;10.81;56.80;100605.00;4949245;28;19919;-86
2024/02/19 10:42:44;;;;;;;;;;;;;;;10.81;56.97;100599.72;4940243;28;19926;-87
2024/02/19 10:45:10;;;;;;;;;;;;;;;10.81;57.33;100596.25;4957442;28;20419;-87
2024/02/19 10:47:38;;;;;;;;;;;;;;;10.81;57.28;100594.44;4957299;28;19915;-87
2024/02/19 10:50:06;;;;;;;;;;;;;;;10.89;56.66;100591.00;4956908;28;19926;-86
2024/02/19 10:52:33;;;;;;;;;;;;;;;10.94;56.55;100590.56;4957132;28;19921;-86
2024/02/19 10:54:59;;;;;;;;;;;;;;;10.96;56.53;100585.94;4949675;28;20312;-86
2024/02/19 10:57:27;;;;;;;;;;;;;;;10.99;57.23;100585.63;4957284;28;20009;-87
2024/02/19 11:00:08;;;;;;;;;;;;;;;10.99;57.33;100583.81;4952703;28;19965;-86
2024/02/19 11:02:36;;;;;;;;;;;;;;;11.01;56.76;100575.72;4958613;28;19930;-86
2024/02/19 11:05:01;;;;;;;;;;;;;;;10.99;57.45;100581.19;4957738;28;19925;-86
2024/02/19 11:07:31;;;;;;;;;;;;;;;10.98;56.61;100574.22;4976109;28;19956;-86
2024/02/19 11:10:00;;;;;;;;;;;;;;;10.95;56.29;100573.72;4970159;28;19923;-86
2024/02/19 11:12:26;;;;;;;;;;;;;;;10.89;56.83;100571.69;4942847;28;19911;-86
2024/02/19 11:14:52;;;;;;;;;;;;;;;10.76;57.31;100578.22;4940079;28;19915;-87
2024/02/19 11:17:17;;;;;;;;;;;;;;;10.73;56.84;100570.59;4956277;28;19937;-86
2024/02/19 11:19:43;;;;;;;;;;;;;;;10.73;57.63;100580.34;4976264;28;19981;-87
2024/02/19 11:22:09;;;;;;;;;;;;;;;10.71;56.51;100566.44;4970862;28;20376;-85
2024/02/19 11:24:39;;;;;;;;;;;;;;;10.65;57.52;100567.91;4941619;28;19968;-86
2024/02/19 11:27:04;;;;;;;;;;;;;;;10.65;57.36;100569.69;4946145;28;19922;-86
2024/02/19 11:29:30;;;;;;;;;;;;;;;10.64;58.04;100563.59;4959548;28;19918;-87
2024/02/19 11:32:03;;;;;;;;;;;;;;;10.65;56.92;100565.25;4948522;28;20557;-86
2024/02/19 11:34:28;;;;;;;;;;;;;;;10.66;57.19;100558.16;4975370;28;19914;-86
2024/02/19 11:37:03;;;;;;;;;;;;;;;10.70;57.66;100564.78;4958507;28;19919;-86
2024/02/19 11:39:29;;;;;;;;;;;;;;;10.74;56.31;100556.41;4939073;28;19915;-86
2024/02/19 11:41:55;;;;;;;;;;;;;;;10.68;57.91;100549.09;4956072;28;19996;-86
2024/02/19 11:44:20;;;;;;;;;;;;;;;10.70;58.29;100548.94;4958594;28;19931;-86
2024/02/19 11:46:46;;;;;;;;;;;;;;;10.77;56.84;100542.06;4974160;28;20356;-86
2024/02/19 11:49:12;;;;;;;;;;;;;;;10.75;57.35;100547.50;4957215;28;20474;-87
2024/02/19 11:51:39;;;;;;;;;;;;;;;10.71;57.59;100546.16;4957748;28;19973;-86
2024/02/19 11:54:05;;;;;;;;;;;;;;;10.71;57.72;100535.59;4957820;28;19914;-86
2024/02/19 11:56:40;;;;;;;;;;;;;;;10.75;58.25;100533.47;4956412;28;19933;-87
2024/02/19 11:59:07;;;;;;;;;;;;;;;10.77;57.57;100537.59;4947586;28;19973;-86
2024/02/19 12:01:32;;;;;;;;;;;;;;;10.73;57.19;100536.25;4955620;28;19922;-86
2024/02/19 12:03:58;;;;;;;;;;;;;;;10.73;57.54;100530.97;4938818;28;20312;-86
2024/02/19 12:06:23;;;;;;;;;;;;;;;10.77;57.56;100528.84;4938595;29;19918;-86
2024/02/19 12:08:48;;;;;;;;;;;;;;;10.85;57.54;100525.44;4938221;28;19946;-86
2024/02/19 12:11:14;;;;;;;;;;;;;;;10.90;57.55;100529.25;4938309;28;19953;-86
2024/02/19 12:13:39;;;;;;;;;;;;;;;10.99;57.61;100522.22;4960007;28;20307;-86
2024/02/19 12:16:05;;;;;;;;;;;;;;;11.02;57.10;100522.72;4938113;28;20380;-86
2024/02/19 12:18:30;;;;;;;;;;;;;;;11.04;57.16;100522.56;4938655;28;19937;-86
2024/02/19 12:20:56;;;;;;;;;;;;;;;11.03;57.14;100515.63;4938243;28;19926;-86
2024/02/19 12:23:21;;;;;;;;;;;;;;;11.04;57.16;100512.81;4938014;28;19986;-86
2024/02/19 12:25:46;;;;;;;;;;;;;;;11.05;56.70;100514.47;4937967;28;19962;-86
2024/02/19 12:28:12;;;;;;;;;;;;;;;11.02;56.61;100504.22;4940001;28;19921;-86
2024/02/19 12:30:37;;;;;;;;;;;;;;;10.96;57.35;100506.66;4961522;28;19941;-86
2024/02/19 12:33:02;;;;;;;;;;;;;;;10.88;57.48;100509.28;4955047;28;19961;-87
2024/02/19 12:35:28;;;;;;;;;;;;;;;10.92;57.14;100503.50;4936809;28;19922;-86